Albatros — C6CN4 — position and weather

sailwx.info

Track history (hours):
 
Tides and Currents Weather Stations Pressure Air Temp Water Temp Dewpoint Dewpoint Depression Visibility Wind Speed Wind Dir Waves Ship Positions

Albatros

Last reported at 2017-Mar-08 10:12 UTC. Time now 2017-Mar-30 22:51 UTC.
Position N 02°09' E 102°14'.
Warning: this ship's position is 22 days out of date.

Length 205.5 m; beam 25.2 m; draft 7.6 m.

Type: Passenger vessel. MMSI: 308784000.

Date/timePositionNaut miles runAvg speedWind from/ knotsBaromVisibWave heightAir tempDewpointWater temp
2017-Mar-08 10:12N 02°09' E 102°14'1 0.2
2017-Mar-08 04:07N 02°10' E 102°14'0 0.0
2017-Mar-08 03:19N 02°10' E 102°14'0 0.0
2017-Mar-08 00:07N 02°10' E 102°14'0 0.0
2017-Mar-07 23:07N 02°10' E 102°14'0 0.6
2017-Mar-07 22:32N 02°10' E 102°14'1212.2
2017-Mar-07 21:32N 01°58' E 102°16'1212.6
2017-Mar-07 20:33N 01°52' E 102°27'1211.8
2017-Mar-07 19:30N 01°46' E 102°38'1211.7
2017-Mar-07 18:30N 01°41' E 102°48'4012.1
2017-Mar-07 15:14N 01°18' E 103°20'811.9
2017-Mar-07 14:31N 01°14' E 103°28'1212.2
2017-Mar-07 13:33N 01°11' E 103°39'1312.9
2017-Mar-07 12:33N 01°13' E 103°52'3 3.1
2017-Mar-07 11:30N 01°16' E 103°52'0 0.0
2017-Mar-07 10:32N 01°16' E 103°52'0 0.1
2017-Mar-07 09:32N 01°16' E 103°52'0 0.1
2017-Mar-07 08:20N 01°16' E 103°52'0 0.1
2017-Mar-07 07:32N 01°16' E 103°52'0 0.0
2017-Mar-07 06:20N 01°16' E 103°52'0 0.0
2017-Mar-07 05:11N 01°16' E 103°52'0 0.1
2017-Mar-07 04:20N 01°16' E 103°52'0 0.0
2017-Mar-07 03:32N 01°16' E 103°52'0 0.1
2017-Mar-07 02:32N 01°16' E 103°52'0 0.0
2017-Mar-07 01:32N 01°16' E 103°52'0 0.1
2017-Mar-07 00:32N 01°16' E 103°52'0 0.1
2017-Mar-06 23:32N 01°16' E 103°52'0 0.0
2017-Mar-06 22:32N 01°16' E 103°52'0 0.0
2017-Mar-06 21:32N 01°16' E 103°52'0 0.0
2017-Mar-06 20:32N 01°16' E 103°52'0 0.0
2017-Mar-06 19:26N 01°16' E 103°52'0 0.0
2017-Mar-06 18:26N 01°16' E 103°52'0 0.1
2017-Mar-06 17:26N 01°16' E 103°52'0 0.1
2017-Mar-06 16:32N 01°16' E 103°52'0 0.1
2017-Mar-06 15:32N 01°16' E 103°52'0 0.1
2017-Mar-06 14:32N 01°16' E 103°52'0 0.1
2017-Mar-06 13:32N 01°16' E 103°52'0 0.1
2017-Mar-06 12:26N 01°16' E 103°52'0 0.0
2017-Mar-06 11:32N 01°16' E 103°52'0 0.0
2017-Mar-06 10:32N 01°16' E 103°52'0 0.0
2017-Mar-06 09:26N 01°16' E 103°52'0 0.0
2017-Mar-06 08:32N 01°16' E 103°52'0 0.0
2017-Mar-06 07:29N 01°16' E 103°52'0 0.0
2017-Mar-06 05:14N 01°16' E 103°52'0 0.0
2017-Mar-06 04:20N 01°16' E 103°52'0 0.1
2017-Mar-06 03:20N 01°16' E 103°52'0 0.1
2017-Mar-06 02:20N 01°16' E 103°52'0 0.0
2017-Mar-06 01:20N 01°16' E 103°52'0 0.0
2017-Mar-06 00:32N 01°16' E 103°52'0 0.0
2017-Mar-05 23:32N 01°16' E 103°52'0 0.0
2017-Mar-05 22:32N 01°16' E 103°52'0 0.1
2017-Mar-05 21:32N 01°16' E 103°52'0 0.1
2017-Mar-05 20:32N 01°16' E 103°52'0 0.0
2017-Mar-05 19:26N 01°16' E 103°52'0 0.0
2017-Mar-05 18:32N 01°16' E 103°52'0 0.0
2017-Mar-05 17:32N 01°16' E 103°52'0 0.1
2017-Mar-05 16:32N 01°16' E 103°52'0 0.1
2017-Mar-05 15:32N 01°16' E 103°52'0 0.0
2017-Mar-05 14:32N 01°16' E 103°52'0 0.0
2017-Mar-05 13:32N 01°16' E 103°52'0 0.1
2017-Mar-05 12:20N 01°16' E 103°52'0 0.0
2017-Mar-05 11:32N 01°16' E 103°52'0 0.0
2017-Mar-05 10:32N 01°16' E 103°52'0 0.1
2017-Mar-05 09:32N 01°16' E 103°52'0 0.1
2017-Mar-05 08:32N 01°16' E 103°52'0 0.1
2017-Mar-05 07:32N 01°16' E 103°52'0 0.0
2017-Mar-05 06:32N 01°16' E 103°52'0 0.0
2017-Mar-05 05:32N 01°16' E 103°52'0 0.0
2017-Mar-05 04:26N 01°16' E 103°52'0 0.1
2017-Mar-05 03:20N 01°16' E 103°52'0 0.1
2017-Mar-05 02:29N 01°16' E 103°52'0 0.1
2017-Mar-05 01:32N 01°16' E 103°52'0 0.1
2017-Mar-05 00:20N 01°16' E 103°52'0 0.3
2017-Mar-04 23:33N 01°16' E 103°52'6 6.4
2017-Mar-04 22:33N 01°15' E 103°58'  
Track history (hours):
 
Tides and Currents Weather Stations Pressure Air Temp Water Temp Dewpoint Dewpoint Depression Visibility Wind Speed Wind Dir Waves Ship Positions

Albatros

Last reported at 2017-Mar-08 10:12 UTC. Time now 2017-Mar-30 22:51 UTC.
Position N 02°09' E 102°14'.
Warning: this ship's position is 22 days out of date.

Length 205.5 m; beam 25.2 m; draft 7.6 m.

Type: Passenger vessel. MMSI: 308784000.

Date/timePositionNaut miles runAvg speedWind from/ knotsBaromVisibWave heightAir tempDewpointWater temp
2017-Mar-08 10:12N 02°09' E 102°14'1 0.2
2017-Mar-08 04:07N 02°10' E 102°14'0 0.0
2017-Mar-08 03:19N 02°10' E 102°14'0 0.0
2017-Mar-08 00:07N 02°10' E 102°14'0 0.0
2017-Mar-07 23:07N 02°10' E 102°14'0 0.6
2017-Mar-07 22:32N 02°10' E 102°14'1212.2
2017-Mar-07 21:32N 01°58' E 102°16'1212.6
2017-Mar-07 20:33N 01°52' E 102°27'1211.8
2017-Mar-07 19:30N 01°46' E 102°38'1211.7
2017-Mar-07 18:30N 01°41' E 102°48'4012.1
2017-Mar-07 15:14N 01°18' E 103°20'811.9
2017-Mar-07 14:31N 01°14' E 103°28'1212.2
2017-Mar-07 13:33N 01°11' E 103°39'1312.9
2017-Mar-07 12:33N 01°13' E 103°52'3 3.1
2017-Mar-07 11:30N 01°16' E 103°52'0 0.0
2017-Mar-07 10:32N 01°16' E 103°52'0 0.1
2017-Mar-07 09:32N 01°16' E 103°52'0 0.1
2017-Mar-07 08:20N 01°16' E 103°52'0 0.1
2017-Mar-07 07:32N 01°16' E 103°52'0 0.0
2017-Mar-07 06:20N 01°16' E 103°52'0 0.0
2017-Mar-07 05:11N 01°16' E 103°52'0 0.1
2017-Mar-07 04:20N 01°16' E 103°52'0 0.0
2017-Mar-07 03:32N 01°16' E 103°52'0 0.1
2017-Mar-07 02:32N 01°16' E 103°52'0 0.0
2017-Mar-07 01:32N 01°16' E 103°52'0 0.1
2017-Mar-07 00:32N 01°16' E 103°52'0 0.1
2017-Mar-06 23:32N 01°16' E 103°52'0 0.0
2017-Mar-06 22:32N 01°16' E 103°52'0 0.0
2017-Mar-06 21:32N 01°16' E 103°52'0 0.0
2017-Mar-06 20:32N 01°16' E 103°52'0 0.0
2017-Mar-06 19:26N 01°16' E 103°52'0 0.0
2017-Mar-06 18:26N 01°16' E 103°52'0 0.1
2017-Mar-06 17:26N 01°16' E 103°52'0 0.1
2017-Mar-06 16:32N 01°16' E 103°52'0 0.1
2017-Mar-06 15:32N 01°16' E 103°52'0 0.1
2017-Mar-06 14:32N 01°16' E 103°52'0 0.1
2017-Mar-06 13:32N 01°16' E 103°52'0 0.1
2017-Mar-06 12:26N 01°16' E 103°52'0 0.0
2017-Mar-06 11:32N 01°16' E 103°52'0 0.0
2017-Mar-06 10:32N 01°16' E 103°52'0 0.0
2017-Mar-06 09:26N 01°16' E 103°52'0 0.0
2017-Mar-06 08:32N 01°16' E 103°52'0 0.0
2017-Mar-06 07:29N 01°16' E 103°52'0 0.0
2017-Mar-06 05:14N 01°16' E 103°52'0 0.0
2017-Mar-06 04:20N 01°16' E 103°52'0 0.1
2017-Mar-06 03:20N 01°16' E 103°52'0 0.1
2017-Mar-06 02:20N 01°16' E 103°52'0 0.0
2017-Mar-06 01:20N 01°16' E 103°52'0 0.0
2017-Mar-06 00:32N 01°16' E 103°52'0 0.0
2017-Mar-05 23:32N 01°16' E 103°52'0 0.0
2017-Mar-05 22:32N 01°16' E 103°52'0 0.1
2017-Mar-05 21:32N 01°16' E 103°52'0 0.1
2017-Mar-05 20:32N 01°16' E 103°52'0 0.0
2017-Mar-05 19:26N 01°16' E 103°52'0 0.0
2017-Mar-05 18:32N 01°16' E 103°52'0 0.0
2017-Mar-05 17:32N 01°16' E 103°52'0 0.1
2017-Mar-05 16:32N 01°16' E 103°52'0 0.1
2017-Mar-05 15:32N 01°16' E 103°52'0 0.0
2017-Mar-05 14:32N 01°16' E 103°52'0 0.0
2017-Mar-05 13:32N 01°16' E 103°52'0 0.1
2017-Mar-05 12:20N 01°16' E 103°52'0 0.0
2017-Mar-05 11:32N 01°16' E 103°52'0 0.0
2017-Mar-05 10:32N 01°16' E 103°52'0 0.1
2017-Mar-05 09:32N 01°16' E 103°52'0 0.1
2017-Mar-05 08:32N 01°16' E 103°52'0 0.1
2017-Mar-05 07:32N 01°16' E 103°52'0 0.0
2017-Mar-05 06:32N 01°16' E 103°52'0 0.0
2017-Mar-05 05:32N 01°16' E 103°52'0 0.0
2017-Mar-05 04:26N 01°16' E 103°52'0 0.1
2017-Mar-05 03:20N 01°16' E 103°52'0 0.1
2017-Mar-05 02:29N 01°16' E 103°52'0 0.1
2017-Mar-05 01:32N 01°16' E 103°52'0 0.1
2017-Mar-05 00:20N 01°16' E 103°52'0 0.3
2017-Mar-04 23:33N 01°16' E 103°52'6 6.4
2017-Mar-04 22:33N 01°15' E 103°58'  

Dump ship's entire track history